Time;durP1;ratioP1;P1;durP2;ratioP2;P2;SDS_P1;SDS_P2;PMS_P1;PMS_P2;Temp;Humidity;BMP_temperature;BMP_pressure;BME280_temperature;BME280_humidity;BME280_pressure;Samples;Min_cycle;Max_cycle;Signal;HPM_P1;HPM_P2
2022/02/18 00:00:29;;;;;;;0.30;0.20;;;;;;;9.18;84.35;99942.06;4979838;28;20504;-50
2022/02/18 00:02:56;;;;;;;0.30;0.20;;;;;;;9.16;84.61;99939.47;4992345;28;20881;-50
2022/02/18 00:05:23;;;;;;;0.30;0.20;;;;;;;9.22;84.80;99948.19;4994210;28;20505;-50
2022/02/18 00:07:49;;;;;;;0.30;0.27;;;;;;;9.27;84.72;99946.25;4995706;28;20445;-49
2022/02/18 00:10:17;;;;;;;0.30;0.20;;;;;;;9.27;84.51;99959.53;4995925;28;20449;-50
2022/02/18 00:12:45;;;;;;;0.30;0.20;;;;;;;9.28;84.59;99955.94;4995952;28;20489;-49
2022/02/18 00:15:17;;;;;;;0.30;0.20;;;;;;;9.31;85.05;99982.38;4995916;28;20472;-50
2022/02/18 00:17:44;;;;;;;0.30;0.20;;;;;;;9.16;85.29;99979.25;4995590;28;20453;-50
2022/02/18 00:20:11;;;;;;;0.30;0.20;;;;;;;9.30;85.02;99986.81;4995641;28;20488;-50
2022/02/18 00:22:38;;;;;;;0.30;0.20;;;;;;;9.22;85.55;99978.22;4995860;28;20480;-49
2022/02/18 00:25:08;;;;;;;0.30;0.20;;;;;;;9.20;85.59;99985.34;4995661;28;20878;-50
2022/02/18 00:27:37;;;;;;;0.30;0.20;;;;;;;9.22;85.65;99974.69;4995636;28;20449;-49
2022/02/18 00:30:06;;;;;;;0.30;0.20;;;;;;;9.19;84.91;99975.66;4995617;28;20478;-49
2022/02/18 00:32:33;;;;;;;0.30;0.20;;;;;;;9.50;82.55;99973.00;4995320;28;21009;-50
2022/02/18 00:34:59;;;;;;;0.30;0.20;;;;;;;9.80;80.85;99973.84;4995218;28;20516;-49
2022/02/18 00:37:27;;;;;;;0.30;0.20;;;;;;;9.87;79.26;99983.38;4995558;28;20504;-50
2022/02/18 00:39:57;;;;;;;0.30;0.17;;;;;;;10.05;78.55;99981.94;4995221;28;20493;-49
2022/02/18 00:42:24;;;;;;;0.30;0.20;;;;;;;9.92;77.15;99980.56;4995248;28;20505;-50
2022/02/18 00:44:51;;;;;;;1.03;0.70;;;;;;;9.91;76.75;99974.41;4995276;28;20469;-50
2022/02/18 00:47:18;;;;;;;0.30;0.20;;;;;;;9.86;76.81;99964.81;4995040;28;20484;-49
2022/02/18 00:49:45;;;;;;;0.30;0.20;;;;;;;9.98;76.33;99969.75;4995330;28;20445;-49
2022/02/18 00:52:12;;;;;;;0.30;0.20;;;;;;;9.85;76.43;99977.22;4995192;28;20453;-49
2022/02/18 00:54:38;;;;;;;0.30;0.20;;;;;;;9.95;76.29;99977.81;4995197;28;20509;-50
2022/02/18 00:57:08;;;;;;;0.30;0.20;;;;;;;9.86;76.19;99965.69;4994998;28;20453;-50
2022/02/18 00:59:35;;;;;;;0.30;0.20;;;;;;;9.91;75.96;99958.47;4994972;28;20538;-49
2022/02/18 01:02:02;;;;;;;0.30;0.20;;;;;;;10.01;75.64;99961.72;4994789;28;20457;-49
2022/02/18 01:04:28;;;;;;;0.30;0.20;;;;;;;10.02;76.15;99960.78;4994804;28;20505;-50
2022/02/18 01:06:55;;;;;;;0.30;0.20;;;;;;;10.06;76.24;99955.31;4992942;28;20962;-50
2022/02/18 01:09:22;;;;;;;0.30;0.20;;;;;;;10.28;75.34;99949.34;4994792;28;20520;-50
2022/02/18 01:11:48;;;;;;;0.30;0.20;;;;;;;10.38;75.46;99949.00;4994900;28;20485;-50
2022/02/18 01:14:15;;;;;;;0.30;0.20;;;;;;;10.16;74.99;99953.25;4994543;28;20457;-50
2022/02/18 01:16:42;;;;;;;0.30;0.20;;;;;;;10.17;75.44;99970.06;4993612;28;20505;-49
2022/02/18 01:19:08;;;;;;;0.30;0.20;;;;;;;10.21;74.95;99961.97;4994532;28;20489;-50
2022/02/18 01:21:35;;;;;;;0.30;0.20;;;;;;;10.09;75.06;99967.63;4994591;28;21002;-49
2022/02/18 01:24:03;;;;;;;0.30;0.20;;;;;;;10.26;74.85;99969.78;4994445;28;20810;-49
2022/02/18 01:26:30;;;;;;;0.30;0.20;;;;;;;10.27;74.49;99977.69;4994595;28;20453;-50
2022/02/18 01:28:57;;;;;;;0.30;0.20;;;;;;;10.02;75.30;99972.28;4994384;28;20450;-50
2022/02/18 01:31:25;;;;;;;0.30;0.20;;;;;;;10.13;74.50;99971.91;4994416;28;20527;-50
2022/02/18 01:33:57;;;;;;;0.30;0.20;;;;;;;10.23;74.57;99976.06;4994581;28;20822;-49
2022/02/18 01:36:25;;;;;;;0.30;0.20;;;;;;;10.38;73.42;99983.53;4994238;28;20481;-50
2022/02/18 01:38:53;;;;;;;0.30;0.20;;;;;;;10.45;73.47;99976.25;4994260;28;20489;-50
2022/02/18 01:41:20;;;;;;;0.30;0.20;;;;;;;10.61;72.64;99969.50;4994244;28;20962;-50
2022/02/18 01:43:59;;;;;;;0.30;0.20;;;;;;;10.32;73.41;99962.50;4994333;28;20481;-50
2022/02/18 01:46:26;;;;;;;0.30;0.20;;;;;;;10.35;73.77;99965.03;4986341;28;20480;-50
2022/02/18 01:48:54;;;;;;;0.30;0.20;;;;;;;10.26;74.27;99959.16;4994262;28;20503;-50
2022/02/18 01:51:23;;;;;;;0.30;0.20;;;;;;;10.32;74.18;99962.50;4994037;28;20453;-50
2022/02/18 01:53:51;;;;;;;0.30;0.20;;;;;;;10.42;73.62;99954.22;4993863;28;20508;-50
2022/02/18 01:56:19;;;;;;;0.30;0.20;;;;;;;10.44;74.09;99957.69;4994110;28;20469;-49
2022/02/18 01:58:46;;;;;;;0.30;0.20;;;;;;;10.23;74.57;99949.50;4993849;28;20493;-50
2022/02/18 02:01:13;;;;;;;0.30;0.20;;;;;;;10.09;74.46;99941.94;4993992;28;20481;-50
2022/02/18 02:03:40;;;;;;;0.43;0.40;;;;;;;10.18;74.81;99947.88;4993779;28;20458;-50
2022/02/18 02:06:08;;;;;;;0.30;0.20;;;;;;;9.99;75.30;99952.91;4993768;28;20473;-50
2022/02/18 02:08:36;;;;;;;0.30;0.20;;;;;;;9.95;75.54;99945.97;4980889;28;20940;-50
2022/02/18 02:11:04;;;;;;;0.30;0.20;;;;;;;9.94;75.89;99947.75;4993551;28;20977;-51
2022/02/18 02:13:36;;;;;;;0.30;0.20;;;;;;;9.91;75.75;99946.97;4993787;28;20461;-50
2022/02/18 02:16:03;;;;;;;0.30;0.20;;;;;;;9.90;76.26;99946.13;4993494;28;21037;-50
2022/02/18 02:18:30;;;;;;;0.30;0.20;;;;;;;9.71;77.06;99932.53;4993629;28;20551;-50
2022/02/18 02:20:57;;;;;;;0.30;0.20;;;;;;;9.87;77.06;99932.03;4993388;28;20449;-50
2022/02/18 02:23:24;;;;;;;0.30;0.20;;;;;;;9.83;77.27;99930.41;4993772;28;20478;-49
2022/02/18 02:25:50;;;;;;;0.30;0.20;;;;;;;9.73;78.17;99916.56;4993484;28;20473;-50
2022/02/18 02:28:17;;;;;;;0.30;0.20;;;;;;;9.57;79.43;99892.28;4993221;28;20963;-49
2022/02/18 02:30:44;;;;;;;0.30;0.20;;;;;;;9.83;79.39;99891.47;4993276;28;20489;-50
2022/02/18 02:33:12;;;;;;;0.30;0.20;;;;;;;9.68;80.81;99891.94;4993380;28;20458;-50
2022/02/18 02:35:40;;;;;;;0.30;0.20;;;;;;;9.73;80.04;99876.75;4992848;28;21030;-50
2022/02/18 02:38:08;;;;;;;0.30;0.20;;;;;;;9.79;80.81;99880.09;4993604;28;20576;-50
2022/02/18 02:40:34;;;;;;;0.30;0.20;;;;;;;9.75;80.87;99872.28;4993260;28;20489;-49
2022/02/18 02:43:01;;;;;;;0.30;0.20;;;;;;;9.61;82.12;99874.50;4993326;28;20460;-49
2022/02/18 02:45:28;;;;;;;0.30;0.20;;;;;;;9.68;81.93;99884.88;4993013;28;20556;-49
2022/02/18 02:47:55;;;;;;;0.30;0.20;;;;;;;9.67;82.15;99879.59;4993120;28;20453;-50
2022/02/18 02:50:22;;;;;;;0.30;0.20;;;;;;;9.71;82.50;99879.44;4992851;28;20884;-49
2022/02/18 02:52:49;;;;;;;0.30;0.20;;;;;;;9.65;82.89;99871.69;4992860;28;20491;-49
2022/02/18 02:55:15;;;;;;;0.30;0.20;;;;;;;9.61;83.52;99875.38;4992971;28;20505;-49
2022/02/18 02:57:44;;;;;;;0.30;0.20;;;;;;;9.66;84.05;99868.13;4993198;28;20453;-49
2022/02/18 03:00:12;;;;;;;0.30;0.20;;;;;;;9.66;84.10;99865.47;4992852;28;20497;-49
2022/02/18 03:03:15;;;;;;;0.30;0.20;;;;;;;9.57;84.67;99872.84;4992838;28;20504;-50
2022/02/18 03:05:42;;;;;;;0.30;0.20;;;;;;;9.51;85.28;99863.31;4982140;28;20597;-49
2022/02/18 03:08:09;;;;;;;0.30;0.20;;;;;;;9.31;86.23;99850.63;4992959;28;20450;-49
2022/02/18 03:10:35;;;;;;;0.30;0.20;;;;;;;9.44;85.79;99862.59;4992947;28;20457;-49
2022/02/18 03:13:03;;;;;;;0.30;0.20;;;;;;;9.37;86.08;99853.13;4992698;28;20500;-49
2022/02/18 03:15:29;;;;;;;0.30;0.20;;;;;;;9.33;86.72;99848.84;4992965;28;20897;-49
2022/02/18 03:17:56;;;;;;;0.40;0.40;;;;;;;9.27;87.51;99842.81;4992910;28;20449;-49
2022/02/18 03:20:23;;;;;;;0.30;0.20;;;;;;;9.35;87.10;99831.09;4992887;28;20493;-49
2022/02/18 03:22:49;;;;;;;0.30;0.20;;;;;;;9.40;86.96;99829.13;4992700;28;20947;-49
2022/02/18 03:25:16;;;;;;;0.30;0.20;;;;;;;9.40;87.32;99825.63;4992701;28;20528;-49
2022/02/18 03:27:43;;;;;;;0.30;0.20;;;;;;;9.66;86.71;99851.34;4992547;28;20454;-49
2022/02/18 03:30:10;;;;;;;0.30;0.20;;;;;;;9.58;87.19;99848.91;4993096;28;20456;-49
2022/02/18 03:32:37;;;;;;;0.30;0.20;;;;;;;9.54;87.87;99847.28;4992731;28;20454;-49
2022/02/18 03:35:05;;;;;;;4.67;1.07;;;;;;;9.50;88.10;99841.22;4992662;28;20513;-49
2022/02/18 03:37:31;;;;;;;0.30;0.20;;;;;;;9.59;87.71;99840.03;4992802;28;20512;-49
2022/02/18 03:39:58;;;;;;;0.30;0.20;;;;;;;9.68;87.67;99831.78;4993991;28;21106;-49
2022/02/18 03:42:24;;;;;;;2.00;1.13;;;;;;;9.72;87.43;99832.53;4996430;28;20922;-49
2022/02/18 03:44:51;;;;;;;0.30;0.13;;;;;;;9.92;86.72;99832.78;4996414;28;20469;-49
2022/02/18 03:47:18;;;;;;;0.30;0.20;;;;;;;9.81;86.99;99829.59;4996246;28;20959;-49
2022/02/18 03:49:44;;;;;;;0.30;0.20;;;;;;;9.76;86.98;99819.16;4996306;28;20485;-49
2022/02/18 03:52:16;;;;;;;0.30;0.20;;;;;;;9.92;86.83;99816.84;4996271;28;20445;-49
2022/02/18 03:54:42;;;;;;;0.87;0.87;;;;;;;9.84;86.56;99818.88;4996207;28;20501;-49
2022/02/18 03:57:09;;;;;;;0.30;0.20;;;;;;;9.84;87.69;99808.25;4996085;28;20441;-49
2022/02/18 03:59:36;;;;;;;0.30;0.20;;;;;;;9.88;86.13;99817.88;4996059;28;20583;-49
2022/02/18 04:02:02;;;;;;;0.30;0.20;;;;;;;9.74;86.82;99815.69;4996287;28;20484;-49
2022/02/18 04:04:29;;;;;;;0.30;0.20;;;;;;;9.85;86.88;99806.47;4995992;28;20469;-49
2022/02/18 04:06:55;;;;;;;0.30;0.20;;;;;;;9.65;87.45;99792.09;4995870;28;20963;-49
2022/02/18 04:09:22;;;;;;;0.30;0.20;;;;;;;9.68;87.44;99786.66;4995777;28;20445;-49
2022/02/18 04:11:49;;;;;;;0.30;0.20;;;;;;;9.64;87.91;99778.88;4996150;28;20453;-49
2022/02/18 04:14:15;;;;;;;0.30;0.20;;;;;;;9.43;89.19;99764.50;4995963;28;20484;-49
2022/02/18 04:16:42;;;;;;;0.30;0.20;;;;;;;9.45;89.09;99757.34;4995763;28;20489;-49
2022/02/18 04:19:08;;;;;;;0.30;0.20;;;;;;;9.54;88.08;99743.81;4995671;28;20545;-50
2022/02/18 04:21:35;;;;;;;0.30;0.20;;;;;;;9.54;88.47;99751.75;4995659;28;20908;-50
2022/02/18 04:24:02;;;;;;;0.30;0.20;;;;;;;9.52;88.50;99736.81;4995574;28;20460;-49
2022/02/18 04:26:29;;;;;;;0.30;0.20;;;;;;;9.46;89.05;99738.78;4982953;28;20535;-49
2022/02/18 04:28:56;;;;;;;0.30;0.20;;;;;;;9.39;89.78;99723.09;4995465;28;20531;-49
2022/02/18 04:31:23;;;;;;;5.43;0.73;;;;;;;9.31;90.08;99719.81;4995553;28;21004;-49
2022/02/18 04:33:49;;;;;;;0.30;0.20;;;;;;;9.28;90.15;99712.81;4995492;28;20496;-49
2022/02/18 04:36:16;;;;;;;0.30;0.20;;;;;;;9.33;90.56;99718.88;4995893;28;20489;-49
2022/02/18 04:38:43;;;;;;;0.30;0.20;;;;;;;9.36;89.93;99715.25;4995278;28;20481;-49
2022/02/18 04:41:09;;;;;;;0.30;0.20;;;;;;;9.28;90.51;99717.25;4995598;28;20454;-49
2022/02/18 04:43:36;;;;;;;0.30;0.20;;;;;;;9.26;90.21;99711.16;4995319;28;20464;-49
2022/02/18 04:46:03;;;;;;;0.30;0.20;;;;;;;9.32;90.08;99713.59;4995343;28;20493;-49
2022/02/18 04:48:30;;;;;;;0.30;0.20;;;;;;;9.35;90.34;99716.16;4995086;28;20453;-49
2022/02/18 04:50:57;;;;;;;0.30;0.20;;;;;;;9.39;89.82;99713.34;4994996;28;20454;-50
2022/02/18 04:53:35;;;;;;;0.30;0.20;;;;;;;9.32;90.07;99692.38;4995368;28;20872;-49
2022/02/18 04:56:04;;;;;;;0.30;0.20;;;;;;;9.37;89.93;99693.97;4995266;28;20543;-49
2022/02/18 04:58:31;;;;;;;0.30;0.20;;;;;;;9.34;89.94;99683.47;4995146;28;20460;-49
2022/02/18 05:00:57;;;;;;;0.30;0.20;;;;;;;9.43;89.27;99688.44;4995065;28;20525;-49
2022/02/18 05:03:25;;;;;;;0.30;0.20;;;;;;;9.41;89.56;99681.47;4994877;28;20454;-49
2022/02/18 05:05:51;;;;;;;0.30;0.20;;;;;;;9.42;89.72;99676.09;4994733;28;20881;-49
2022/02/18 05:08:18;;;;;;;0.53;0.53;;;;;;;9.32;90.46;99666.75;4994826;28;20496;-49
2022/02/18 05:10:44;;;;;;;0.30;0.20;;;;;;;9.34;90.29;99666.69;4994988;28;20875;-49
2022/02/18 05:13:11;;;;;;;0.30;0.20;;;;;;;9.27;91.94;99662.50;4994840;28;20461;-50
2022/02/18 05:15:37;;;;;;;0.30;0.20;;;;;;;9.23;91.93;99659.09;4994702;28;20513;-49
2022/02/18 05:18:04;;;;;;;0.30;0.20;;;;;;;9.31;91.04;99642.91;4994532;28;20833;-49
2022/02/18 05:20:31;;;;;;;0.30;0.20;;;;;;;9.47;89.85;99638.84;4994876;28;20497;-49
2022/02/18 05:22:58;;;;;;;0.30;0.20;;;;;;;9.39;90.42;99636.44;4994747;28;20449;-49
2022/02/18 05:25:25;;;;;;;0.30;0.20;;;;;;;9.33;91.23;99631.34;4994721;28;20474;-49
2022/02/18 05:27:52;;;;;;;0.30;0.20;;;;;;;9.39;90.52;99631.13;4994571;28;20449;-49
2022/02/18 05:30:20;;;;;;;0.30;0.20;;;;;;;9.42;90.35;99627.50;4994416;28;20449;-49
2022/02/18 05:32:50;;;;;;;1.60;1.50;;;;;;;9.70;89.90;99622.09;4994265;28;20445;-49
2022/02/18 05:35:17;;;;;;;0.30;0.20;;;;;;;9.65;89.28;99622.25;4994057;28;20511;-49
2022/02/18 05:37:43;;;;;;;0.30;0.20;;;;;;;9.55;90.25;99614.66;4994420;28;20602;-49
2022/02/18 05:40:10;;;;;;;0.30;0.20;;;;;;;9.57;90.64;99613.69;4994301;28;20528;-49
2022/02/18 05:42:37;;;;;;;0.30;0.20;;;;;;;9.50;92.17;99602.44;4994784;28;20949;-49
2022/02/18 05:45:04;;;;;;;0.30;0.20;;;;;;;9.48;94.01;99611.38;4994158;28;20470;-51
2022/02/18 05:47:35;;;;;;;0.30;0.20;;;;;;;9.37;96.02;99601.13;4980994;28;20999;-51
2022/02/18 05:50:10;;;;;;;0.30;0.20;;;;;;;9.43;96.07;99584.13;4994201;28;20801;-51
2022/02/18 05:52:43;;;;;;;0.30;0.20;;;;;;;9.32;98.68;99584.53;4994025;28;20449;-50
2022/02/18 05:55:10;;;;;;;0.30;0.20;;;;;;;9.29;99.65;99571.34;4993704;28;20987;-50
2022/02/18 05:57:37;;;;;;;0.30;0.20;;;;;;;9.32;99.29;99570.38;4993632;28;20959;-50
2022/02/18 06:00:07;;;;;;;0.30;0.20;;;;;;;9.32;98.93;99559.75;4993653;28;20521;-50
2022/02/18 06:02:34;;;;;;;0.30;0.20;;;;;;;9.20;100.00;99551.34;4993598;28;20460;-50
2022/02/18 06:05:05;;;;;;;0.30;0.20;;;;;;;9.28;100.00;99540.44;4993451;28;20910;-50
2022/02/18 06:07:31;;;;;;;0.30;0.20;;;;;;;9.14;100.00;99527.69;4993787;28;20445;-50
2022/02/18 06:10:00;;;;;;;0.30;0.20;;;;;;;9.21;100.00;99531.00;4993565;28;20476;-50
2022/02/18 06:12:27;;;;;;;0.30;0.20;;;;;;;9.25;100.00;99519.34;4993643;28;20876;-50
2022/02/18 06:14:53;;;;;;;0.30;0.20;;;;;;;9.29;100.00;99513.00;4993623;28;20474;-50
2022/02/18 06:17:20;;;;;;;0.73;0.73;;;;;;;9.24;100.00;99506.16;4993676;28;20461;-50
2022/02/18 06:19:47;;;;;;;0.30;0.20;;;;;;;9.28;100.00;99505.13;4993378;28;20489;-50
2022/02/18 06:22:15;;;;;;;0.30;0.20;;;;;;;9.36;99.63;99488.00;4994058;28;20450;-50
2022/02/18 06:24:43;;;;;;;0.30;0.10;;;;;;;9.41;99.06;99488.69;4993266;28;20524;-50
2022/02/18 06:27:10;;;;;;;0.30;0.20;;;;;;;9.47;100.00;99493.81;4993741;28;20881;-50
2022/02/18 06:29:37;;;;;;;0.30;0.20;;;;;;;9.44;100.00;99493.03;4993417;28;20456;-50
2022/02/18 06:32:07;;;;;;;0.30;0.20;;;;;;;9.48;100.00;99484.91;4993389;28;20489;-51
2022/02/18 06:34:34;;;;;;;0.30;0.20;;;;;;;9.56;98.86;99475.78;4993139;28;20540;-50
2022/02/18 06:37:00;;;;;;;1.03;1.03;;;;;;;9.53;99.87;99476.78;4993346;28;20473;-51
2022/02/18 06:39:27;;;;;;;0.30;0.20;;;;;;;9.65;99.16;99468.34;4993023;28;20508;-50
2022/02/18 06:41:53;;;;;;;0.30;0.20;;;;;;;9.70;98.36;99457.56;4993186;28;20857;-50
2022/02/18 06:44:20;;;;;;;0.30;0.20;;;;;;;9.68;98.73;99452.31;4993196;28;20488;-50
2022/02/18 06:46:47;;;;;;;0.30;0.20;;;;;;;9.76;97.83;99439.63;4993112;28;21092;-50
2022/02/18 06:49:13;;;;;;;0.30;0.20;;;;;;;9.79;97.02;99449.25;4993274;28;20454;-51
2022/02/18 06:51:40;;;;;;;0.30;0.20;;;;;;;9.86;97.04;99441.91;4992838;28;20446;-50
2022/02/18 06:54:06;;;;;;;0.30;0.10;;;;;;;9.84;97.29;99449.06;4992796;28;20883;-51
2022/02/18 06:56:53;;;;;;;0.30;0.20;;;;;;;10.11;96.19;99442.66;4992918;28;20441;-51
2022/02/18 06:59:22;;;;;;;0.30;0.20;;;;;;;10.14;95.77;99444.31;4993058;28;20453;-51
2022/02/18 07:01:53;;;;;;;0.30;0.20;;;;;;;9.93;97.25;99446.91;4992963;28;20449;-51
2022/02/18 07:04:21;;;;;;;0.30;0.20;;;;;;;10.24;96.14;99440.41;4992937;28;20958;-51
2022/02/18 07:06:47;;;;;;;0.30;0.20;;;;;;;10.04;96.21;99441.19;4992889;28;20958;-51
2022/02/18 07:09:14;;;;;;;0.30;0.20;;;;;;;9.84;98.75;99435.78;4993050;28;20492;-51
2022/02/18 07:11:41;;;;;;;0.30;0.20;;;;;;;9.88;98.54;99410.88;4992674;28;20968;-51
2022/02/18 07:14:09;;;;;;;0.30;0.20;;;;;;;9.88;99.61;99419.69;4992938;28;20457;-51
2022/02/18 07:16:38;;;;;;;3.10;0.80;;;;;;;9.93;99.68;99411.53;4996808;28;20453;-51
2022/02/18 07:19:05;;;;;;;0.30;0.20;;;;;;;9.94;100.00;99410.63;4996793;28;20465;-51
2022/02/18 07:21:31;;;;;;;0.30;0.20;;;;;;;9.99;100.00;99406.84;4996883;28;20531;-51
2022/02/18 07:23:58;;;;;;;0.30;0.20;;;;;;;10.17;98.85;99402.59;4997033;28;20477;-51
2022/02/18 07:26:24;;;;;;;0.30;0.20;;;;;;;10.12;100.00;99390.41;4996716;28;20535;-51
2022/02/18 07:28:51;;;;;;;0.30;0.20;;;;;;;10.02;100.00;99388.16;4996804;28;20523;-51
2022/02/18 07:31:18;;;;;;;0.30;0.20;;;;;;;10.13;100.00;99390.34;4996694;28;20445;-51
2022/02/18 07:33:44;;;;;;;0.30;0.20;;;;;;;10.00;100.00;99383.81;4996583;28;20504;-51
2022/02/18 07:36:11;;;;;;;0.30;0.20;;;;;;;10.04;100.00;99377.47;4996436;28;20828;-51
2022/02/18 07:38:37;;;;;;;0.30;0.20;;;;;;;10.07;100.00;99372.88;4996735;28;20450;-51
2022/02/18 07:41:04;;;;;;;0.30;0.20;;;;;;;9.94;100.00;99350.44;4996492;28;20521;-51
2022/02/18 07:43:30;;;;;;;0.30;0.20;;;;;;;10.08;100.00;99356.03;4996475;28;20488;-51
2022/02/18 07:46:07;;;;;;;0.30;0.20;;;;;;;10.19;100.00;99355.59;4993902;28;20479;-50
2022/02/18 07:48:34;;;;;;;0.30;0.20;;;;;;;10.26;100.00;99348.25;4996323;28;20453;-51
2022/02/18 07:51:00;;;;;;;0.30;0.20;;;;;;;10.33;100.00;99342.63;4996380;28;20472;-50
2022/02/18 07:53:27;;;;;;;0.30;0.20;;;;;;;10.13;100.00;99329.28;4996275;28;20477;-51
2022/02/18 07:55:53;;;;;;;0.30;0.20;;;;;;;10.22;100.00;99325.41;4996161;28;20886;-51
2022/02/18 07:58:20;;;;;;;0.30;0.20;;;;;;;10.28;100.00;99327.78;4996188;28;20453;-51
2022/02/18 08:00:47;;;;;;;0.30;0.20;;;;;;;10.17;100.00;99325.56;4995997;28;20488;-51
2022/02/18 08:03:13;;;;;;;0.30;0.20;;;;;;;10.19;100.00;99309.56;4995032;28;20536;-51
2022/02/18 08:05:40;;;;;;;0.30;0.20;;;;;;;10.27;100.00;99307.47;4996240;28;20469;-51
2022/02/18 08:08:07;;;;;;;0.30;0.20;;;;;;;10.24;100.00;99299.63;4996123;28;20488;-51
2022/02/18 08:10:33;;;;;;;0.40;0.37;;;;;;;10.29;100.00;99301.19;4995979;28;20441;-51
2022/02/18 08:13:06;;;;;;;0.30;0.20;;;;;;;10.44;100.00;99304.09;4995880;28;20456;-51
2022/02/18 08:15:32;;;;;;;0.30;0.20;;;;;;;10.74;100.00;99300.06;4995728;28;20457;-51
2022/02/18 08:17:59;;;;;;;0.30;0.20;;;;;;;10.53;100.00;99295.72;4995992;28;20511;-51
2022/02/18 08:20:25;;;;;;;0.30;0.20;;;;;;;10.62;100.00;99292.66;4995742;28;20515;-51
2022/02/18 08:22:52;;;;;;;0.30;0.20;;;;;;;10.70;100.00;99285.22;4995683;28;20489;-51
2022/02/18 08:25:19;;;;;;;0.30;0.20;;;;;;;10.64;100.00;99280.16;4995179;28;20501;-51
2022/02/18 08:27:45;;;;;;;0.30;0.20;;;;;;;10.95;100.00;99276.94;4995591;28;20512;-51
2022/02/18 08:30:12;;;;;;;0.30;0.20;;;;;;;10.77;100.00;99265.38;4995701;28;20442;-51
2022/02/18 08:32:39;;;;;;;0.30;0.20;;;;;;;10.68;100.00;99269.31;4995734;28;20450;-51
2022/02/18 08:35:06;;;;;;;0.30;0.20;;;;;;;10.72;100.00;99262.06;4995617;28;20481;-50
2022/02/18 08:37:33;;;;;;;0.30;0.20;;;;;;;10.75;100.00;99253.94;4995638;28;20454;-51
2022/02/18 08:40:00;;;;;;;0.30;0.20;;;;;;;10.91;100.00;99256.75;4995492;28;20516;-51
2022/02/18 08:42:26;;;;;;;0.30;0.20;;;;;;;10.84;100.00;99244.72;4995273;28;20943;-51
2022/02/18 08:44:53;;;;;;;0.30;0.20;;;;;;;10.79;100.00;99238.72;4995201;28;20856;-51
2022/02/18 08:47:20;;;;;;;0.30;0.20;;;;;;;10.91;100.00;99224.84;4995476;28;20823;-51
2022/02/18 08:49:46;;;;;;;0.30;0.20;;;;;;;10.86;100.00;99233.06;4995511;28;20453;-50
2022/02/18 08:52:13;;;;;;;0.30;0.20;;;;;;;11.01;100.00;99227.94;4995040;28;20476;-51
2022/02/18 08:54:39;;;;;;;0.30;0.20;;;;;;;11.07;100.00;99227.66;4995231;28;20508;-51
2022/02/18 08:57:06;;;;;;;0.30;0.20;;;;;;;11.46;100.00;99228.38;4995032;28;20465;-51
2022/02/18 08:59:33;;;;;;;0.30;0.20;;;;;;;11.24;100.00;99211.75;4995360;28;20504;-51
2022/02/18 09:02:00;;;;;;;0.30;0.20;;;;;;;11.24;100.00;99211.75;4994974;28;20529;-50
2022/02/18 09:04:26;;;;;;;0.30;0.20;;;;;;;11.24;100.00;99203.78;4994925;28;20536;-51
2022/02/18 09:06:53;;;;;;;0.30;0.20;;;;;;;11.36;100.00;99211.13;4994807;28;20480;-51
2022/02/18 09:09:20;;;;;;;0.30;0.20;;;;;;;11.19;100.00;99196.00;4994919;28;20453;-51
2022/02/18 09:11:46;;;;;;;0.30;0.20;;;;;;;11.35;100.00;99179.28;4986679;28;20450;-51
2022/02/18 09:14:16;;;;;;;0.30;0.20;;;;;;;11.43;100.00;99179.78;4994952;28;20462;-51
2022/02/18 09:16:44;;;;;;;0.30;0.20;;;;;;;11.67;100.00;99178.56;4994794;28;20481;-51
2022/02/18 09:19:11;;;;;;;0.30;0.20;;;;;;;11.74;100.00;99168.44;4994883;28;20453;-51
2022/02/18 09:21:37;;;;;;;0.30;0.20;;;;;;;11.86;100.00;99166.03;4994426;28;20521;-51
2022/02/18 09:24:04;;;;;;;0.30;0.20;;;;;;;11.94;100.00;99170.97;4994516;28;20453;-51
2022/02/18 09:26:31;;;;;;;0.30;0.20;;;;;;;12.14;100.00;99159.25;4994785;28;20488;-51
2022/02/18 09:28:58;;;;;;;0.30;0.20;;;;;;;12.20;100.00;99150.06;4994695;28;20496;-51
2022/02/18 09:31:25;;;;;;;0.30;0.20;;;;;;;12.13;100.00;99161.06;4994629;28;20450;-51
2022/02/18 09:33:52;;;;;;;0.30;0.20;;;;;;;12.20;100.00;99139.41;4994455;28;20489;-51
2022/02/18 09:36:19;;;;;;;0.30;0.20;;;;;;;12.24;100.00;99135.66;4994299;28;20517;-51
2022/02/18 09:38:46;;;;;;;0.30;0.20;;;;;;;12.53;100.00;99126.06;4993362;28;20511;-51
2022/02/18 09:41:12;;;;;;;0.30;0.20;;;;;;;12.27;100.00;99115.03;4994433;28;20540;-51
2022/02/18 09:43:41;;;;;;;0.30;0.20;;;;;;;12.35;100.00;99120.81;4994411;28;20484;-51
2022/02/18 09:46:10;;;;;;;0.30;0.20;;;;;;;12.54;100.00;99114.47;4994183;28;20520;-51
2022/02/18 09:48:37;;;;;;;0.30;0.20;;;;;;;12.74;100.00;99109.72;4994086;28;20449;-51
2022/02/18 09:51:04;;;;;;;0.30;0.20;;;;;;;12.96;100.00;99108.50;4993949;28;21002;-51
2022/02/18 09:53:32;;;;;;;0.30;0.20;;;;;;;12.91;100.00;99099.94;4994107;28;20520;-51
2022/02/18 09:56:00;;;;;;;0.30;0.20;;;;;;;13.04;100.00;99100.94;4993915;28;20473;-51
2022/02/18 09:58:27;;;;;;;0.30;0.20;;;;;;;13.24;100.00;99084.66;4994197;28;20515;-51
2022/02/18 10:00:54;;;;;;;0.30;0.23;;;;;;;13.28;100.00;99096.84;4993894;28;20485;-53
2022/02/18 10:03:20;;;;;;;0.30;0.20;;;;;;;13.41;100.00;99090.78;4993845;28;20482;-51
2022/02/18 10:05:48;;;;;;;0.67;0.67;;;;;;;13.15;100.00;99095.81;4993757;28;20473;-51
2022/02/18 10:08:22;;;;;;;0.30;0.20;;;;;;;13.14;100.00;99075.44;4993892;28;20545;-51
2022/02/18 10:11:05;;;;;;;0.30;0.20;;;;;;;13.23;100.00;99060.72;4993883;28;20441;-51
2022/02/18 10:13:39;;;;;;;0.30;0.20;;;;;;;13.35;100.00;99070.69;4993739;28;20445;-52
2022/02/18 10:16:21;;;;;;;0.30;0.20;;;;;;;13.37;100.00;99054.56;4993534;28;20477;-51
2022/02/18 10:18:52;;;;;;;0.30;0.20;;;;;;;13.46;100.00;99062.03;4993956;28;20448;-51
2022/02/18 10:21:30;;;;;;;0.50;0.50;;;;;;;13.37;100.00;99050.09;4993415;28;20489;-51
2022/02/18 10:24:14;;;;;;;0.30;0.20;;;;;;;13.39;100.00;99055.34;4993707;28;20456;-51
2022/02/18 10:26:48;;;;;;;0.30;0.20;;;;;;;13.48;100.00;99047.63;4981526;28;20508;-51
2022/02/18 10:29:18;;;;;;;0.30;0.20;;;;;;;13.49;100.00;99033.34;4993624;28;20511;-51
2022/02/18 10:32:08;;;;;;;0.30;0.20;;;;;;;13.48;100.00;99031.63;4993667;28;20453;-51
2022/02/18 10:34:55;;;;;;;0.30;0.20;;;;;;;13.51;100.00;99022.56;4993349;28;20485;-52
2022/02/18 10:37:24;;;;;;;0.30;0.20;;;;;;;13.65;100.00;99022.56;4989218;28;20931;-53
2022/02/18 10:40:08;;;;;;;0.30;0.20;;;;;;;13.69;100.00;99009.88;4993557;28;20449;-53
2022/02/18 10:42:35;;;;;;;0.30;0.20;;;;;;;13.65;100.00;99006.56;4993234;28;20493;-52
2022/02/18 10:45:12;;;;;;;0.30;0.20;;;;;;;13.67;100.00;99001.13;4993130;28;21069;-53
2022/02/18 10:47:42;;;;;;;0.30;0.20;;;;;;;13.39;100.00;99000.13;4981582;28;20450;-53
2022/02/18 10:50:19;;;;;;;0.30;0.20;;;;;;;13.57;100.00;98992.84;4993153;28;20460;-53
2022/02/18 10:53:19;;;;;;;0.30;0.20;;;;;;;13.40;100.00;98991.19;4993154;28;20453;-52
2022/02/18 10:56:00;;;;;;;0.30;0.20;;;;;;;13.26;100.00;98992.00;4980892;28;20966;-53
2022/02/18 10:58:27;;;;;;;0.30;0.20;;;;;;;13.49;100.00;98976.41;4993064;28;20946;-53
2022/02/18 11:01:11;;;;;;;0.30;0.20;;;;;;;13.52;100.00;98962.88;4993087;28;20485;-53
2022/02/18 11:03:43;;;;;;;0.30;0.20;;;;;;;13.49;100.00;98968.41;4992950;28;20453;-53
2022/02/18 11:06:10;;;;;;;0.30;0.20;;;;;;;13.74;100.00;98959.75;4992733;28;20501;-52
2022/02/18 11:08:37;;;;;;;0.30;0.20;;;;;;;13.98;100.00;98957.28;4993087;28;20515;-53
2022/02/18 11:11:11;;;;;;;0.30;0.20;;;;;;;14.04;100.00;98955.09;4993081;28;20504;-53
2022/02/18 11:13:40;;;;;;;0.30;0.20;;;;;;;14.09;100.00;98949.47;4993049;28;20996;-53
2022/02/18 11:16:20;;;;;;;0.30;0.20;;;;;;;13.97;100.00;98960.94;4993015;28;20477;-53
2022/02/18 11:18:47;;;;;;;0.30;0.20;;;;;;;13.99;100.00;98959.03;4993147;28;20449;-53
2022/02/18 11:21:19;;;;;;;0.30;0.20;;;;;;;14.02;100.00;98956.16;4993093;28;20866;-52
2022/02/18 11:23:48;;;;;;;0.30;0.20;;;;;;;13.76;100.00;98942.66;4993283;28;20516;-53
2022/02/18 11:26:19;;;;;;;0.37;0.30;;;;;;;13.99;100.00;98937.66;4992870;28;20532;-54
2022/02/18 11:28:50;;;;;;;0.30;0.20;;;;;;;13.87;100.00;98934.81;4992773;28;20799;-53
2022/02/18 11:31:31;;;;;;;0.30;0.20;;;;;;;14.02;100.00;98918.75;4993032;28;20861;-54
2022/02/18 11:34:16;;;;;;;0.30;0.20;;;;;;;13.78;100.00;98922.03;4992643;28;20949;-53
2022/02/18 11:37:11;;;;;;;0.30;0.20;;;;;;;13.99;100.00;98911.81;4992580;28;20846;-54
2022/02/18 11:39:55;;;;;;;0.30;0.20;;;;;;;14.06;100.00;98912.25;4980446;28;20449;-54